Time;durP1;ratioP1;P1;durP2;ratioP2;P2;SDS_P1;SDS_P2;PMS_P1;PMS_P2;Temp;Humidity;BMP_temperature;BMP_pressure;BME280_temperature;BME280_humidity;BME280_pressure;Samples;Min_cycle;Max_cycle;Signal;HPM_P1;HPM_P2
2021/12/18 00:00:19;;;;;;;10.93;4.88;;;;;;;;;;6308057;22;20243;-62
2021/12/18 00:02:45;;;;;;;9.55;4.85;;;;;;;;;;6307960;22;20227;-61
2021/12/18 00:05:11;;;;;;;9.40;4.72;;;;;;;;;;6307777;22;20135;-61
2021/12/18 00:07:37;;;;;;;9.73;5.40;;;;;;;;;;6307671;22;20170;-62
2021/12/18 00:10:04;;;;;;;11.88;5.57;;;;;;;;;;6307658;22;20195;-60
2021/12/18 00:12:29;;;;;;;13.80;5.72;;;;;;;;;;6307736;22;20139;-61
2021/12/18 00:14:55;;;;;;;12.48;5.43;;;;;;;;;;6307733;22;20494;-61
2021/12/18 00:17:21;;;;;;;13.27;5.78;;;;;;;;;;6307595;22;20510;-61
2021/12/18 00:19:47;;;;;;;14.13;6.45;;;;;;;;;;6308005;22;20172;-61
2021/12/18 00:22:13;;;;;;;11.70;5.95;;;;;;;;;;6307414;22;20389;-61
2021/12/18 00:24:39;;;;;;;12.45;5.57;;;;;;;;;;6307348;22;20145;-61
2021/12/18 00:27:06;;;;;;;13.23;6.03;;;;;;;;;;6307720;22;20554;-61
2021/12/18 00:29:32;;;;;;;12.27;5.57;;;;;;;;;;6307333;22;20151;-61
2021/12/18 00:31:58;;;;;;;12.85;5.70;;;;;;;;;;6307642;22;20147;-62
2021/12/18 00:34:24;;;;;;;12.70;6.13;;;;;;;;;;6307842;22;20154;-62
2021/12/18 00:36:51;;;;;;;10.55;5.82;;;;;;;;;;6307312;22;20195;-61
2021/12/18 00:39:17;;;;;;;11.55;5.47;;;;;;;;;;6307733;22;20201;-61
2021/12/18 00:44:13;;;;;;;8.00;4.15;;;;;;;;;;6307830;22;20207;-62
2021/12/18 00:46:41;;;;;;;7.00;3.90;;;;;;;;;;6307557;22;20146;-61
2021/12/18 00:49:08;;;;;;;6.78;3.78;;;;;;;;;;6307708;22;20147;-61
2021/12/18 00:51:34;;;;;;;7.97;3.80;;;;;;;;;;6307309;22;20139;-61
2021/12/18 00:54:00;;;;;;;6.85;2.83;;;;;;;;;;6307385;22;20153;-62
2021/12/18 00:56:26;;;;;;;6.60;2.40;;;;;;;;;;6307208;22;20183;-61
2021/12/18 00:58:52;;;;;;;4.63;2.45;;;;;;;;;;6307924;22;20175;-61
2021/12/18 01:01:20;;;;;;;4.53;2.67;;;;;;;;;;6307869;22;20143;-61
2021/12/18 01:03:47;;;;;;;5.55;2.80;;;;;;;;;;6307446;22;20234;-61
2021/12/18 01:06:13;;;;;;;4.75;2.20;;;;;;;;;;6307564;22;20218;-61
2021/12/18 01:08:39;;;;;;;5.72;2.15;;;;;;;;;;6307270;22;20624;-61
2021/12/18 01:11:31;;;;;;;3.92;2.33;;;;;;;;;;6307454;22;20223;-62
2021/12/18 01:16:47;;;;;;;3.40;1.65;;;;;;;;;;6307517;22;20146;-61
2021/12/18 01:22:43;;;;;;;3.35;1.63;;;;;;;;;;6307765;22;20150;-61
2021/12/18 01:24:46;;;;;;;2.28;1.58;;;;;;;;;;6307285;22;20582;-61
2021/12/18 01:27:12;;;;;;;2.83;1.80;;;;;;;;;;6307162;22;20188;-61
2021/12/18 01:29:39;;;;;;;3.05;1.70;;;;;;;;;;6307263;22;20157;-61
2021/12/18 01:32:05;;;;;;;4.20;1.95;;;;;;;;;;6307020;22;20147;-61
2021/12/18 01:34:31;;;;;;;3.88;2.00;;;;;;;;;;6307755;22;20217;-61
2021/12/18 01:36:57;;;;;;;2.83;1.83;;;;;;;;;;6309149;22;20176;-61
2021/12/18 01:39:23;;;;;;;4.35;2.28;;;;;;;;;;6309026;22;20195;-61
2021/12/18 01:52:36;;;;;;;4.65;2.10;;;;;;;;;;6309343;22;20151;-61
2021/12/18 01:55:02;;;;;;;2.55;1.80;;;;;;;;;;6309038;22;20148;-61
2021/12/18 01:57:28;;;;;;;3.20;1.73;;;;;;;;;;6308794;22;20539;-60
2021/12/18 01:59:54;;;;;;;3.13;1.98;;;;;;;;;;6309293;22;20205;-61
2021/12/18 02:02:21;;;;;;;2.17;1.83;;;;;;;;;;6309465;22;20652;-61
2021/12/18 02:04:47;;;;;;;3.10;1.83;;;;;;;;;;6309317;22;20143;-61
2021/12/18 02:07:14;;;;;;;2.20;1.77;;;;;;;;;;6309023;22;20434;-60
2021/12/18 02:12:26;;;;;;;2.90;2.03;;;;;;;;;;6319608;22;20204;-61
2021/12/18 02:19:35;;;;;;;2.10;1.50;;;;;;;;;;6309309;22;20520;-60
2021/12/18 02:23:00;;;;;;;1.60;1.30;;;;;;;;;;6309714;22;20178;-61
2021/12/18 02:25:26;;;;;;;2.60;1.40;;;;;;;;;;6308641;22;20149;-61
2021/12/18 02:27:55;;;;;;;1.90;1.25;;;;;;;;;;6308387;22;20443;-61
2021/12/18 02:30:22;;;;;;;2.55;1.00;;;;;;;;;;6308960;22;20214;-61
2021/12/18 02:32:49;;;;;;;2.05;1.00;;;;;;;;;;6308489;22;20139;-61
2021/12/18 02:35:32;;;;;;;2.20;1.17;;;;;;;;;;6308444;22;20217;-60
2021/12/18 02:38:08;;;;;;;2.35;1.00;;;;;;;;;;6308372;22;20149;-61
2021/12/18 02:43:19;;;;;;;1.60;0.90;;;;;;;;;;6308684;22;20142;-61
2021/12/18 02:45:45;;;;;;;1.50;1.00;;;;;;;;;;6309002;22;20147;-61
2021/12/18 02:48:11;;;;;;;1.60;0.88;;;;;;;;;;6308050;22;20200;-61
2021/12/18 02:50:40;;;;;;;0.90;0.60;;;;;;;;;;6308819;22;20146;-60
2021/12/18 02:53:06;;;;;;;1.17;0.73;;;;;;;;;;6308689;22;20151;-61
2021/12/18 02:55:32;;;;;;;1.10;0.80;;;;;;;;;;6308388;22;20145;-61
2021/12/18 02:57:58;;;;;;;1.30;0.80;;;;;;;;;;6308269;22;20154;-61
2021/12/18 03:00:26;;;;;;;1.42;0.80;;;;;;;;;;6308284;22;20177;-61
2021/12/18 03:02:52;;;;;;;1.58;0.77;;;;;;;;;;6308608;22;20150;-61
2021/12/18 03:05:26;;;;;;;2.13;0.95;;;;;;;;;;6308734;22;20244;-61
2021/12/18 03:07:59;;;;;;;2.15;1.15;;;;;;;;;;6308864;22;20127;-61
2021/12/18 03:22:18;;;;;;;2.50;0.90;;;;;;;;;;6308876;22;20232;-61
2021/12/18 03:24:30;;;;;;;1.98;1.10;;;;;;;;;;6308164;22;20158;-61
2021/12/18 03:26:56;;;;;;;1.95;0.90;;;;;;;;;;6308811;22;20127;-61
2021/12/18 03:29:22;;;;;;;2.22;1.10;;;;;;;;;;6307955;22;20431;-61
2021/12/18 03:31:47;;;;;;;1.60;0.95;;;;;;;;;;6308209;22;20143;-61
2021/12/18 03:34:14;;;;;;;1.50;1.08;;;;;;;;;;6308002;22;20214;-60
2021/12/18 03:36:39;;;;;;;1.40;0.85;;;;;;;;;;6308331;22;20246;-61
2021/12/18 03:39:06;;;;;;;2.10;0.95;;;;;;;;;;6307698;22;20198;-61
2021/12/18 03:41:31;;;;;;;1.35;0.82;;;;;;;;;;6308286;22;20134;-61
2021/12/18 03:43:58;;;;;;;2.60;1.10;;;;;;;;;;6307983;22;20496;-60
2021/12/18 03:46:24;;;;;;;1.98;1.02;;;;;;;;;;6308301;22;20143;-61
2021/12/18 03:48:49;;;;;;;2.05;1.20;;;;;;;;;;6307821;22;20249;-61
2021/12/18 03:51:15;;;;;;;1.67;0.95;;;;;;;;;;6307796;22;20143;-61
2021/12/18 03:53:41;;;;;;;1.80;0.90;;;;;;;;;;6308040;22;20143;-61
2021/12/18 03:56:07;;;;;;;2.15;0.90;;;;;;;;;;6307549;22;20283;-61
2021/12/18 03:58:33;;;;;;;1.10;0.80;;;;;;;;;;6307100;22;20267;-61
2021/12/18 04:00:59;;;;;;;2.58;0.70;;;;;;;;;;6307538;22;20135;-61
2021/12/18 04:03:25;;;;;;;1.60;0.68;;;;;;;;;;6307439;22;20165;-61
2021/12/18 04:05:51;;;;;;;1.33;0.90;;;;;;;;;;6307583;22;20419;-61
2021/12/18 04:08:17;;;;;;;1.73;0.77;;;;;;;;;;6307526;22;20139;-61
2021/12/18 04:10:44;;;;;;;0.95;0.70;;;;;;;;;;6307365;22;20157;-61
2021/12/18 04:13:10;;;;;;;1.95;0.77;;;;;;;;;;6307382;22;20162;-61
2021/12/18 04:15:37;;;;;;;2.25;0.57;;;;;;;;;;6307408;22;20142;-61
2021/12/18 04:18:03;;;;;;;0.85;0.65;;;;;;;;;;6307343;22;20145;-61
2021/12/18 04:20:29;;;;;;;1.48;0.90;;;;;;;;;;6307162;22;20257;-61
2021/12/18 04:22:55;;;;;;;1.00;0.80;;;;;;;;;;6307293;22;20171;-61
2021/12/18 04:25:21;;;;;;;1.55;0.82;;;;;;;;;;6307546;22;20138;-61
2021/12/18 04:27:47;;;;;;;0.82;0.70;;;;;;;;;;6307411;22;20254;-61
2021/12/18 04:30:13;;;;;;;0.88;0.60;;;;;;;;;;6307219;22;20155;-61
2021/12/18 04:32:39;;;;;;;1.63;0.82;;;;;;;;;;6307257;22;20143;-61
2021/12/18 04:35:06;;;;;;;2.17;0.80;;;;;;;;;;6306963;22;20209;-61
2021/12/18 04:37:32;;;;;;;1.73;0.80;;;;;;;;;;6307649;22;20143;-61
2021/12/18 04:39:58;;;;;;;1.63;0.90;;;;;;;;;;6307239;22;20162;-61
2021/12/18 04:42:24;;;;;;;1.48;0.80;;;;;;;;;;6307177;22;20483;-61
2021/12/18 04:44:50;;;;;;;0.88;0.68;;;;;;;;;;6307084;22;20226;-62
2021/12/18 04:47:16;;;;;;;1.42;0.82;;;;;;;;;;6307104;22;20135;-62
2021/12/18 04:49:42;;;;;;;1.13;0.60;;;;;;;;;;6307006;22;20139;-63
2021/12/18 04:52:07;;;;;;;1.75;0.80;;;;;;;;;;6307285;22;20479;-60
2021/12/18 04:54:33;;;;;;;1.05;0.68;;;;;;;;;;6307383;22;20142;-60
2021/12/18 04:56:59;;;;;;;0.60;0.50;;;;;;;;;;6307538;22;20531;-61
2021/12/18 04:59:25;;;;;;;1.15;0.70;;;;;;;;;;6305782;22;20170;-61
2021/12/18 05:01:52;;;;;;;1.20;0.80;;;;;;;;;;6307225;22;20150;-61
2021/12/18 05:04:19;;;;;;;1.35;0.70;;;;;;;;;;6307487;22;20214;-61
2021/12/18 05:06:46;;;;;;;0.95;0.75;;;;;;;;;;6307635;22;20225;-61
2021/12/18 05:09:13;;;;;;;1.42;0.70;;;;;;;;;;6307450;22;20154;-60
2021/12/18 05:11:40;;;;;;;1.45;0.90;;;;;;;;;;6307258;22;20147;-60
2021/12/18 05:14:06;;;;;;;1.60;1.02;;;;;;;;;;6307381;22;20139;-60
2021/12/18 05:16:32;;;;;;;1.60;1.02;;;;;;;;;;6308147;22;20139;-61
2021/12/18 05:18:58;;;;;;;1.65;1.00;;;;;;;;;;6308297;22;20184;-59
2021/12/18 05:21:24;;;;;;;2.08;1.00;;;;;;;;;;6307366;22;20551;-60
2021/12/18 05:23:50;;;;;;;1.73;0.90;;;;;;;;;;6307382;22;20214;-59
2021/12/18 05:26:16;;;;;;;2.67;0.90;;;;;;;;;;6307480;22;20174;-60
2021/12/18 05:28:42;;;;;;;1.75;1.13;;;;;;;;;;6307134;22;20182;-60
2021/12/18 05:31:09;;;;;;;1.65;0.90;;;;;;;;;;6307521;22;20603;-59
2021/12/18 05:33:36;;;;;;;1.40;0.80;;;;;;;;;;6307463;22;20147;-60
2021/12/18 05:36:13;;;;;;;1.92;0.80;;;;;;;;;;6307399;22;20146;-60
2021/12/18 05:38:39;;;;;;;1.75;1.02;;;;;;;;;;6307230;22;20166;-60
2021/12/18 05:41:05;;;;;;;1.55;0.80;;;;;;;;;;6306821;22;20139;-60
2021/12/18 05:43:30;;;;;;;1.95;1.10;;;;;;;;;;6306863;22;20139;-60
2021/12/18 05:45:56;;;;;;;2.72;1.30;;;;;;;;;;6307108;22;20204;-62
2021/12/18 05:48:22;;;;;;;2.60;1.25;;;;;;;;;;6306776;22;20139;-62
2021/12/18 05:50:48;;;;;;;1.83;0.93;;;;;;;;;;6306730;22;20139;-61
2021/12/18 05:53:14;;;;;;;2.60;1.45;;;;;;;;;;6307120;22;20146;-61
2021/12/18 05:55:40;;;;;;;1.92;1.13;;;;;;;;;;6306692;22;20135;-60
2021/12/18 05:58:06;;;;;;;2.38;1.20;;;;;;;;;;6306766;22;20204;-61
2021/12/18 06:00:32;;;;;;;1.60;1.08;;;;;;;;;;6306902;22;20198;-62
2021/12/18 06:02:58;;;;;;;1.40;0.93;;;;;;;;;;6306763;22;20535;-62
2021/12/18 06:05:24;;;;;;;1.40;1.00;;;;;;;;;;6306924;22;20229;-63
2021/12/18 06:07:57;;;;;;;1.48;1.10;;;;;;;;;;6307023;22;20147;-61
2021/12/18 06:10:25;;;;;;;1.67;0.95;;;;;;;;;;6307005;22;20645;-61
2021/12/18 06:12:52;;;;;;;1.98;0.90;;;;;;;;;;6307165;22;20146;-61
2021/12/18 06:15:18;;;;;;;2.00;1.00;;;;;;;;;;6306986;22;20147;-61
2021/12/18 06:17:43;;;;;;;2.13;1.10;;;;;;;;;;6306687;22;20150;-61
2021/12/18 06:20:10;;;;;;;1.10;0.88;;;;;;;;;;6306806;22;20531;-62
2021/12/18 06:22:35;;;;;;;1.65;1.02;;;;;;;;;;6308124;22;20169;-60
2021/12/18 06:25:01;;;;;;;2.10;1.40;;;;;;;;;;6308653;22;20139;-61
2021/12/18 06:27:27;;;;;;;1.95;1.45;;;;;;;;;;6308758;22;20462;-61
2021/12/18 06:29:53;;;;;;;1.55;1.23;;;;;;;;;;6308493;22;20143;-60
2021/12/18 06:32:19;;;;;;;3.22;1.60;;;;;;;;;;6309073;22;20150;-61
2021/12/18 06:34:45;;;;;;;3.00;1.65;;;;;;;;;;6308373;22;20563;-61
2021/12/18 06:37:11;;;;;;;2.58;1.50;;;;;;;;;;6308122;22;20149;-61
2021/12/18 06:39:37;;;;;;;2.13;1.45;;;;;;;;;;6308131;22;20470;-61
2021/12/18 06:42:03;;;;;;;2.47;1.85;;;;;;;;;;6308069;22;20135;-61
2021/12/18 06:44:30;;;;;;;2.78;2.28;;;;;;;;;;6308157;22;20207;-59
2021/12/18 06:46:56;;;;;;;2.35;1.73;;;;;;;;;;6308439;22;20154;-59
2021/12/18 06:49:22;;;;;;;3.40;2.00;;;;;;;;;;6308441;22;20139;-60
2021/12/18 06:51:48;;;;;;;3.03;2.00;;;;;;;;;;6308351;22;20335;-62
2021/12/18 06:54:14;;;;;;;2.90;2.05;;;;;;;;;;6308454;22;20166;-60
2021/12/18 06:56:40;;;;;;;2.78;2.08;;;;;;;;;;6308673;22;20486;-61
2021/12/18 06:59:06;;;;;;;2.33;1.95;;;;;;;;;;6308343;22;20420;-62
2021/12/18 07:01:32;;;;;;;2.97;2.20;;;;;;;;;;6308409;22;20177;-61
2021/12/18 07:03:58;;;;;;;3.72;2.45;;;;;;;;;;6308845;22;20180;-62
2021/12/18 07:06:24;;;;;;;5.15;2.58;;;;;;;;;;6308410;22;20451;-61
2021/12/18 07:08:50;;;;;;;4.90;3.10;;;;;;;;;;6308865;22;20162;-62
2021/12/18 07:11:16;;;;;;;4.47;2.80;;;;;;;;;;6308632;22;20197;-61
2021/12/18 07:13:42;;;;;;;3.95;2.90;;;;;;;;;;6308964;22;20166;-61
2021/12/18 07:16:08;;;;;;;3.47;2.75;;;;;;;;;;6309169;22;20562;-61
2021/12/18 07:18:34;;;;;;;2.63;1.90;;;;;;;;;;6308604;22;20627;-61
2021/12/18 07:21:00;;;;;;;3.05;2.10;;;;;;;;;;6308503;22;20214;-61
2021/12/18 07:23:26;;;;;;;3.42;1.88;;;;;;;;;;6308413;22;20177;-60
2021/12/18 07:25:52;;;;;;;4.78;2.00;;;;;;;;;;6308403;22;20135;-61
2021/12/18 07:28:18;;;;;;;3.97;2.10;;;;;;;;;;6308092;22;20155;-61
2021/12/18 07:30:44;;;;;;;3.08;2.28;;;;;;;;;;6308172;22;20166;-61
2021/12/18 07:33:11;;;;;;;3.58;2.25;;;;;;;;;;6308038;22;20167;-61
2021/12/18 07:35:38;;;;;;;4.70;2.50;;;;;;;;;;6307946;22;20142;-59
2021/12/18 07:38:04;;;;;;;2.95;2.20;;;;;;;;;;6308061;22;20139;-59
2021/12/18 07:40:30;;;;;;;4.15;2.75;;;;;;;;;;6307811;22;20245;-60
2021/12/18 07:42:56;;;;;;;3.88;2.58;;;;;;;;;;6307773;22;20135;-60
2021/12/18 07:45:22;;;;;;;3.70;2.60;;;;;;;;;;6307881;22;20139;-61
2021/12/18 07:47:48;;;;;;;3.55;2.08;;;;;;;;;;6307712;22;20135;-61
2021/12/18 07:50:18;;;;;;;3.80;2.60;;;;;;;;;;6307732;22;20138;-60
2021/12/18 07:52:45;;;;;;;2.60;2.00;;;;;;;;;;6307930;22;20142;-60
2021/12/18 07:55:11;;;;;;;3.63;2.60;;;;;;;;;;6308139;22;20169;-60
2021/12/18 07:57:37;;;;;;;3.20;2.30;;;;;;;;;;6307957;22;20446;-61
2021/12/18 08:00:07;;;;;;;3.78;2.50;;;;;;;;;;6307411;22;20163;-61
2021/12/18 08:02:33;;;;;;;3.30;2.30;;;;;;;;;;6307990;22;20146;-60
2021/12/18 08:04:59;;;;;;;3.15;1.67;;;;;;;;;;6307656;22;20157;-61
2021/12/18 08:07:25;;;;;;;2.17;1.60;;;;;;;;;;6307494;22;20150;-61
2021/12/18 08:09:51;;;;;;;2.95;1.58;;;;;;;;;;6307976;22;20550;-60
2021/12/18 08:12:17;;;;;;;1.83;1.15;;;;;;;;;;6307424;22;20198;-60
2021/12/18 08:14:43;;;;;;;2.60;1.52;;;;;;;;;;6307492;22;20215;-61
2021/12/18 08:17:09;;;;;;;2.35;1.40;;;;;;;;;;6307435;22;20139;-60
2021/12/18 08:19:35;;;;;;;2.33;1.48;;;;;;;;;;6307278;22;20173;-60
2021/12/18 08:22:01;;;;;;;2.10;1.23;;;;;;;;;;6307496;22;20139;-60
2021/12/18 08:24:27;;;;;;;1.85;1.00;;;;;;;;;;6307461;22;20134;-59
2021/12/18 08:26:53;;;;;;;1.85;1.50;;;;;;;;;;6307369;22;20487;-59
2021/12/18 08:29:19;;;;;;;2.78;1.30;;;;;;;;;;6307479;22;20178;-60
2021/12/18 08:31:45;;;;;;;2.08;1.17;;;;;;;;;;6307618;22;20189;-59
2021/12/18 08:34:11;;;;;;;1.60;1.10;;;;;;;;;;6307717;22;20147;-61
2021/12/18 08:36:37;;;;;;;1.58;1.20;;;;;;;;;;6307256;22;20448;-59
2021/12/18 08:39:03;;;;;;;1.67;1.23;;;;;;;;;;6307356;22;20198;-60
2021/12/18 08:41:30;;;;;;;1.10;0.95;;;;;;;;;;6307304;22;20139;-60
2021/12/18 08:43:56;;;;;;;2.22;1.38;;;;;;;;;;6307610;22;20146;-61
2021/12/18 08:46:22;;;;;;;1.80;1.15;;;;;;;;;;6307168;22;20228;-61
2021/12/18 08:48:48;;;;;;;1.80;1.10;;;;;;;;;;6307474;22;20143;-61
2021/12/18 08:51:14;;;;;;;3.25;1.60;;;;;;;;;;6307353;22;20150;-60
2021/12/18 08:53:40;;;;;;;1.55;1.13;;;;;;;;;;6307346;22;20174;-60
2021/12/18 08:56:06;;;;;;;1.67;1.02;;;;;;;;;;6307474;22;20197;-61
2021/12/18 08:58:32;;;;;;;1.38;0.82;;;;;;;;;;6307135;22;20143;-60
2021/12/18 09:00:58;;;;;;;1.98;1.40;;;;;;;;;;6307425;22;20531;-61
2021/12/18 09:03:24;;;;;;;2.40;1.25;;;;;;;;;;6308191;22;20139;-61
2021/12/18 09:05:51;;;;;;;1.13;0.90;;;;;;;;;;6308464;22;20158;-61
2021/12/18 09:08:17;;;;;;;1.77;1.25;;;;;;;;;;6308508;22;20139;-60
2021/12/18 09:10:44;;;;;;;2.15;1.00;;;;;;;;;;6307820;22;20149;-60
2021/12/18 09:13:10;;;;;;;1.73;0.90;;;;;;;;;;6308090;22;20165;-59
2021/12/18 09:15:36;;;;;;;2.20;0.95;;;;;;;;;;6307964;22;20147;-59
2021/12/18 09:18:02;;;;;;;1.35;0.85;;;;;;;;;;6307987;22;20482;-60
2021/12/18 09:20:28;;;;;;;1.20;0.90;;;;;;;;;;6307178;22;20250;-60
2021/12/18 09:22:54;;;;;;;0.70;0.52;;;;;;;;;;6307240;22;20169;-60
2021/12/18 09:25:20;;;;;;;1.10;0.68;;;;;;;;;;6307829;22;20143;-60
2021/12/18 09:27:46;;;;;;;1.50;0.70;;;;;;;;;;6308106;22;20479;-61
2021/12/18 09:30:13;;;;;;;1.23;0.60;;;;;;;;;;6307975;22;20139;-61
2021/12/18 09:32:39;;;;;;;0.88;0.50;;;;;;;;;;6307143;22;20143;-61
2021/12/18 09:35:05;;;;;;;0.52;0.47;;;;;;;;;;6307117;22;20150;-61
2021/12/18 09:37:31;;;;;;;0.85;0.57;;;;;;;;;;6306881;22;20166;-61
2021/12/18 09:39:57;;;;;;;0.47;0.35;;;;;;;;;;6307189;22;20582;-61
2021/12/18 09:42:23;;;;;;;0.38;0.38;;;;;;;;;;6307330;22;20150;-62
2021/12/18 09:44:50;;;;;;;0.70;0.43;;;;;;;;;;6306676;22;20459;-60
2021/12/18 09:47:18;;;;;;;0.70;0.47;;;;;;;;;;6306669;22;20143;-60
2021/12/18 09:49:45;;;;;;;0.93;0.30;;;;;;;;;;6306770;22;20153;-60
2021/12/18 09:52:11;;;;;;;0.50;0.43;;;;;;;;;;6305925;22;20143;-59
2021/12/18 09:54:36;;;;;;;0.60;0.38;;;;;;;;;;6307103;22;20147;-61
2021/12/18 09:57:03;;;;;;;0.40;0.40;;;;;;;;;;6308298;22;20618;-62
2021/12/18 09:59:29;;;;;;;1.77;0.40;;;;;;;;;;6308616;22;20579;-60
2021/12/18 10:01:55;;;;;;;0.47;0.40;;;;;;;;;;6308760;22;20146;-61
2021/12/18 10:04:28;;;;;;;0.75;0.45;;;;;;;;;;6309088;22;20618;-60
2021/12/18 10:06:54;;;;;;;0.90;0.70;;;;;;;;;;6309106;22;20139;-61
2021/12/18 10:09:21;;;;;;;1.15;0.50;;;;;;;;;;6308856;22;20242;-62
2021/12/18 10:11:54;;;;;;;1.63;0.68;;;;;;;;;;6309212;22;20143;-59
2021/12/18 10:14:31;;;;;;;0.75;0.47;;;;;;;;;;6309002;22;20127;-60
2021/12/18 10:16:57;;;;;;;1.85;0.50;;;;;;;;;;6309080;22;20141;-59
2021/12/18 10:19:34;;;;;;;0.43;0.40;;;;;;;;;;6308847;22;20235;-59
2021/12/18 10:22:01;;;;;;;0.75;0.40;;;;;;;;;;6309175;22;20123;-60
2021/12/18 10:24:28;;;;;;;1.17;0.55;;;;;;;;;;6308598;22;20220;-60
2021/12/18 10:26:54;;;;;;;0.98;0.60;;;;;;;;;;6307463;22;20559;-60
2021/12/18 10:29:28;;;;;;;1.38;0.70;;;;;;;;;;6308640;22;20162;-61
2021/12/18 10:31:54;;;;;;;1.35;0.80;;;;;;;;;;6308664;22;20154;-59
2021/12/18 10:34:28;;;;;;;1.30;0.80;;;;;;;;;;6308598;22;20139;-60
2021/12/18 10:37:13;;;;;;;1.90;1.02;;;;;;;;;;6309169;22;20146;-60
2021/12/18 10:39:59;;;;;;;2.45;1.10;;;;;;;;;;6308914;22;20167;-61
2021/12/18 10:42:27;;;;;;;1.13;0.90;;;;;;;;;;6308653;22;20153;-60
2021/12/18 10:45:12;;;;;;;1.27;0.80;;;;;;;;;;6308964;22;20139;-60
2021/12/18 10:48:05;;;;;;;1.70;0.90;;;;;;;;;;6309142;22;20465;-60
2021/12/18 10:50:37;;;;;;;1.15;0.65;;;;;;;;;;6303826;22;20146;-60
2021/12/18 10:53:05;;;;;;;0.80;0.60;;;;;;;;;;6308943;22;20241;-60
2021/12/18 10:55:57;;;;;;;0.52;0.50;;;;;;;;;;6309199;22;20192;-60
2021/12/18 10:58:27;;;;;;;1.25;0.60;;;;;;;;;;6303477;22;20184;-61
2021/12/18 11:00:57;;;;;;;2.03;0.50;;;;;;;;;;6309308;22;20146;-60
2021/12/18 11:03:25;;;;;;;0.80;0.50;;;;;;;;;;6309519;22;20185;-61
2021/12/18 11:06:11;;;;;;;1.25;0.60;;;;;;;;;;6309383;22;20139;-61
2021/12/18 11:08:58;;;;;;;1.52;0.57;;;;;;;;;;6288129;22;20494;-61
2021/12/18 11:14:12;;;;;;;0.77;0.60;;;;;;;;;;6309415;22;20217;-61
2021/12/18 11:16:40;;;;;;;0.90;0.60;;;;;;;;;;6308884;22;20199;-60
2021/12/18 11:19:07;;;;;;;0.80;0.60;;;;;;;;;;6308814;22;20175;-62
2021/12/18 11:21:33;;;;;;;1.40;0.68;;;;;;;;;;6308947;22;20146;-61
2021/12/18 11:24:04;;;;;;;1.17;0.60;;;;;;;;;;6308318;22;20143;-60
2021/12/18 11:26:41;;;;;;;0.85;0.60;;;;;;;;;;6308529;22;20175;-60
2021/12/18 11:29:07;;;;;;;1.08;0.55;;;;;;;;;;6308170;22;20498;-62
2021/12/18 11:31:33;;;;;;;0.93;0.60;;;;;;;;;;6308250;22;20143;-62
2021/12/18 11:34:01;;;;;;;0.75;0.47;;;;;;;;;;6308490;22;20165;-61
2021/12/18 11:36:27;;;;;;;1.00;0.50;;;;;;;;;;6308562;22;20143;-61
2021/12/18 11:38:53;;;;;;;0.80;0.50;;;;;;;;;;6308030;22;20599;-60
2021/12/18 11:41:19;;;;;;;1.50;0.60;;;;;;;;;;6308352;22;20682;-61
2021/12/18 11:43:47;;;;;;;1.33;0.60;;;;;;;;;;6308304;22;20142;-60
2021/12/18 11:46:42;;;;;;;3.08;0.68;;;;;;;;;;6308510;22;20166;-60
2021/12/18 11:49:09;;;;;;;1.48;0.77;;;;;;;;;;6266491;22;20182;-61
2021/12/18 11:51:36;;;;;;;1.77;1.10;;;;;;;;;;6308196;22;20425;-60
2021/12/18 11:54:03;;;;;;;1.58;0.90;;;;;;;;;;6308115;22;20151;-61
2021/12/18 11:56:45;;;;;;;3.65;1.15;;;;;;;;;;6308418;22;20208;-61
2021/12/18 11:59:11;;;;;;;1.45;0.68;;;;;;;;;;6307812;22;20201;-61
2021/12/18 12:01:44;;;;;;;1.58;0.70;;;;;;;;;;6308297;22;20139;-61
2021/12/18 12:04:10;;;;;;;1.90;0.82;;;;;;;;;;6308163;22;20123;-61
2021/12/18 12:06:37;;;;;;;1.58;0.55;;;;;;;;;;6308266;22;20143;-61
2021/12/18 12:09:44;;;;;;;0.95;0.63;;;;;;;;;;6307922;22;20231;-61
2021/12/18 12:12:05;;;;;;;1.15;0.63;;;;;;;;;;6306791;22;20457;-60
2021/12/18 12:14:31;;;;;;;1.20;0.60;;;;;;;;;;6307925;22;20445;-61
2021/12/18 12:16:57;;;;;;;0.88;0.75;;;;;;;;;;6308032;22;20147;-60
2021/12/18 12:19:35;;;;;;;1.67;1.17;;;;;;;;;;6307388;22;20611;-60
2021/12/18 12:22:02;;;;;;;1.00;0.75;;;;;;;;;;6308174;22;20146;-60
2021/12/18 12:24:29;;;;;;;1.42;1.10;;;;;;;;;;6306904;22;20151;-60
2021/12/18 12:27:15;;;;;;;1.23;0.90;;;;;;;;;;6308196;22;20139;-61
2021/12/18 12:29:46;;;;;;;2.13;1.20;;;;;;;;;;6307616;22;20159;-61
2021/12/18 12:32:12;;;;;;;4.63;1.40;;;;;;;;;;6308201;22;20154;-61
2021/12/18 12:34:38;;;;;;;3.03;1.20;;;;;;;;;;6307701;22;20143;-61
2021/12/18 12:37:23;;;;;;;2.08;1.33;;;;;;;;;;6307844;22;20139;-61
2021/12/18 12:40:02;;;;;;;2.53;1.52;;;;;;;;;;6307656;22;20173;-61
2021/12/18 12:42:28;;;;;;;3.35;1.52;;;;;;;;;;6306508;22;20131;-61
2021/12/18 12:45:15;;;;;;;3.97;1.52;;;;;;;;;;6307618;22;20167;-61
2021/12/18 12:47:52;;;;;;;4.40;1.88;;;;;;;;;;6308158;22;20165;-61
2021/12/18 12:50:18;;;;;;;4.47;1.75;;;;;;;;;;6307641;22;20157;-61
2021/12/18 12:52:58;;;;;;;2.58;1.70;;;;;;;;;;6307801;22;20543;-62
2021/12/18 12:55:25;;;;;;;3.92;2.00;;;;;;;;;;6307651;22;20164;-61
2021/12/18 12:57:58;;;;;;;6.10;2.20;;;;;;;;;;6307928;22;20150;-61
2021/12/18 13:00:24;;;;;;;6.72;2.53;;;;;;;;;;6307430;22;20220;-61
2021/12/18 13:02:54;;;;;;;4.53;2.28;;;;;;;;;;6307832;22;20139;-62
2021/12/18 13:05:21;;;;;;;4.85;2.58;;;;;;;;;;6307629;22;20135;-62
2021/12/18 13:07:51;;;;;;;6.15;2.28;;;;;;;;;;6307862;22;20222;-62
2021/12/18 13:10:18;;;;;;;6.22;3.05;;;;;;;;;;6308154;22;20139;-61
2021/12/18 13:12:54;;;;;;;7.60;3.25;;;;;;;;;;6308044;22;20171;-60
2021/12/18 13:15:20;;;;;;;8.77;3.00;;;;;;;;;;6307770;22;20177;-61
2021/12/18 13:17:47;;;;;;;5.97;3.10;;;;;;;;;;6307676;22;20146;-61
2021/12/18 13:20:13;;;;;;;8.23;3.47;;;;;;;;;;6307471;22;20254;-62
2021/12/18 13:22:39;;;;;;;9.70;3.08;;;;;;;;;;6306223;22;20216;-62
2021/12/18 13:25:12;;;;;;;9.63;3.60;;;;;;;;;;6307391;22;20200;-61
2021/12/18 13:27:40;;;;;;;13.60;3.22;;;;;;;;;;6307650;22;20527;-59
2021/12/18 13:30:17;;;;;;;9.60;4.18;;;;;;;;;;6307213;22;20131;-62
2021/12/18 13:32:53;;;;;;;8.30;3.55;;;;;;;;;;6307305;22;20138;-61
2021/12/18 13:35:19;;;;;;;9.57;3.75;;;;;;;;;;6307040;22;20143;-62
2021/12/18 13:37:58;;;;;;;10.48;3.20;;;;;;;;;;6307221;22;20143;-61
2021/12/18 13:40:25;;;;;;;12.23;3.70;;;;;;;;;;6307021;22;20175;-61
2021/12/18 13:43:04;;;;;;;6.05;3.33;;;;;;;;;;6307471;22;20139;-61
2021/12/18 13:45:30;;;;;;;11.85;3.85;;;;;;;;;;6307382;22;20158;-62
2021/12/18 13:48:01;;;;;;;9.05;3.25;;;;;;;;;;6306982;22;20424;-62
2021/12/18 13:50:27;;;;;;;11.05;3.97;;;;;;;;;;6306978;22;20201;-61
2021/12/18 13:52:54;;;;;;;11.40;3.85;;;;;;;;;;6307146;22;20138;-61
2021/12/18 13:55:32;;;;;;;14.23;4.00;;;;;;;;;;6307355;22;20147;-61
2021/12/18 13:58:03;;;;;;;12.52;3.58;;;;;;;;;;6307158;22;20586;-61
2021/12/18 14:00:29;;;;;;;12.32;3.60;;;;;;;;;;6307017;22;20586;-61
2021/12/18 14:02:55;;;;;;;12.40;3.55;;;;;;;;;;6307230;22;20433;-61
2021/12/18 14:05:21;;;;;;;13.27;3.75;;;;;;;;;;6307276;22;20141;-61
2021/12/18 14:07:47;;;;;;;11.13;3.17;;;;;;;;;;6307030;22;20193;-61
2021/12/18 14:10:13;;;;;;;10.52;3.72;;;;;;;;;;6307280;22;20147;-60
2021/12/18 14:12:39;;;;;;;11.98;3.63;;;;;;;;;;6307061;22;20143;-61
2021/12/18 14:15:05;;;;;;;10.27;3.40;;;;;;;;;;6306990;22;20153;-61
2021/12/18 14:17:33;;;;;;;12.02;3.35;;;;;;;;;;6307357;22;20143;-61
2021/12/18 14:20:05;;;;;;;11.60;3.78;;;;;;;;;;6306960;22;20167;-61
2021/12/18 14:22:31;;;;;;;8.90;3.22;;;;;;;;;;6307277;22;20412;-61
2021/12/18 14:25:00;;;;;;;11.18;3.72;;;;;;;;;;6307289;22;20150;-61
2021/12/18 14:27:37;;;;;;;14.98;3.75;;;;;;;;;;6306668;22;20189;-61
2021/12/18 14:30:04;;;;;;;15.88;3.95;;;;;;;;;;6307183;22;20135;-61
2021/12/18 14:32:29;;;;;;;16.00;4.50;;;;;;;;;;6306778;22;20151;-61
2021/12/18 14:35:03;;;;;;;14.30;4.03;;;;;;;;;;6306828;22;20146;-61
2021/12/18 14:37:29;;;;;;;13.52;3.72;;;;;;;;;;6306658;22;20151;-61
2021/12/18 14:39:57;;;;;;;12.35;3.67;;;;;;;;;;6306717;22;20163;-60
2021/12/18 14:42:34;;;;;;;14.23;3.78;;;;;;;;;;6307204;22;20150;-61
2021/12/18 14:45:03;;;;;;;9.82;3.38;;;;;;;;;;6309001;22;20119;-61
2021/12/18 14:47:30;;;;;;;12.23;3.22;;;;;;;;;;6309017;22;20142;-61
2021/12/18 14:49:56;;;;;;;12.88;3.70;;;;;;;;;;6309068;22;20154;-59
2021/12/18 14:52:22;;;;;;;16.63;3.78;;;;;;;;;;6308996;22;20224;-61
2021/12/18 14:54:49;;;;;;;14.68;3.58;;;;;;;;;;6308776;22;20606;-61
2021/12/18 14:57:17;;;;;;;14.13;3.83;;;;;;;;;;6308984;22;20203;-60
2021/12/18 14:59:42;;;;;;;15.75;4.32;;;;;;;;;;6308649;22;20261;-61
2021/12/18 15:02:08;;;;;;;14.77;3.40;;;;;;;;;;6309021;22;20163;-61
2021/12/18 15:04:34;;;;;;;14.73;3.70;;;;;;;;;;6308779;22;20139;-60
2021/12/18 15:07:00;;;;;;;11.55;3.67;;;;;;;;;;6308808;22;20195;-61
2021/12/18 15:09:28;;;;;;;13.55;3.65;;;;;;;;;;6309292;22;20286;-60
2021/12/18 15:11:54;;;;;;;13.95;3.70;;;;;;;;;;6309320;22;20173;-61
2021/12/18 15:14:24;;;;;;;12.38;3.60;;;;;;;;;;6309095;22;20142;-60
2021/12/18 15:17:06;;;;;;;16.75;4.05;;;;;;;;;;6308713;22;20139;-61
2021/12/18 15:19:34;;;;;;;15.77;3.28;;;;;;;;;;6308975;22;20171;-61
2021/12/18 15:22:02;;;;;;;23.48;4.03;;;;;;;;;;6308491;22;20136;-61
2021/12/18 15:24:29;;;;;;;16.50;4.28;;;;;;;;;;6309169;22;20221;-60
2021/12/18 15:26:56;;;;;;;13.10;3.28;;;;;;;;;;6308486;22;20197;-61
2021/12/18 15:29:24;;;;;;;13.27;3.08;;;;;;;;;;6308312;22;20563;-61